sensor_id;sensor_type;location;lat;lon;timestamp;P1;durP1;ratioP1;P2;durP2;ratioP2
50102;SDS011;35993;52.604;10.078;2022-08-02T00:00:26;4.85;;;1.73;;
50102;SDS011;35993;52.604;10.078;2022-08-02T00:02:52;5.03;;;2.10;;
50102;SDS011;35993;52.604;10.078;2022-08-02T00:05:17;7.78;;;2.20;;
50102;SDS011;35993;52.604;10.078;2022-08-02T00:07:43;4.72;;;2.17;;
50102;SDS011;35993;52.604;10.078;2022-08-02T00:10:10;7.25;;;2.65;;
50102;SDS011;35993;52.604;10.078;2022-08-02T00:12:36;6.22;;;2.10;;
50102;SDS011;35993;52.604;10.078;2022-08-02T00:15:03;8.90;;;2.25;;
50102;SDS011;35993;52.604;10.078;2022-08-02T00:17:31;6.43;;;2.35;;
50102;SDS011;35993;52.604;10.078;2022-08-02T00:19:56;5.53;;;2.00;;
50102;SDS011;35993;52.604;10.078;2022-08-02T00:22:22;6.22;;;2.25;;
50102;SDS011;35993;52.604;10.078;2022-08-02T00:24:48;5.85;;;2.22;;
50102;SDS011;35993;52.604;10.078;2022-08-02T00:27:13;6.72;;;2.33;;
50102;SDS011;35993;52.604;10.078;2022-08-02T00:29:39;5.32;;;2.60;;
50102;SDS011;35993;52.604;10.078;2022-08-02T00:32:05;4.93;;;2.00;;
50102;SDS011;35993;52.604;10.078;2022-08-02T00:34:30;4.57;;;2.20;;
50102;SDS011;35993;52.604;10.078;2022-08-02T00:36:56;6.45;;;2.47;;
50102;SDS011;35993;52.604;10.078;2022-08-02T00:39:22;6.25;;;2.10;;
50102;SDS011;35993;52.604;10.078;2022-08-02T00:41:48;6.60;;;2.20;;
50102;SDS011;35993;52.604;10.078;2022-08-02T00:44:16;5.35;;;2.20;;
50102;SDS011;35993;52.604;10.078;2022-08-02T00:46:44;8.38;;;2.40;;
50102;SDS011;35993;52.604;10.078;2022-08-02T00:49:10;6.25;;;2.60;;
50102;SDS011;35993;52.604;10.078;2022-08-02T00:51:37;9.05;;;2.80;;
50102;SDS011;35993;52.604;10.078;2022-08-02T00:54:03;6.45;;;2.63;;
50102;SDS011;35993;52.604;10.078;2022-08-02T00:56:29;5.40;;;2.22;;
50102;SDS011;35993;52.604;10.078;2022-08-02T00:58:54;4.53;;;2.30;;
50102;SDS011;35993;52.604;10.078;2022-08-02T01:01:20;5.20;;;2.20;;
50102;SDS011;35993;52.604;10.078;2022-08-02T01:04:06;5.93;;;2.30;;
50102;SDS011;35993;52.604;10.078;2022-08-02T01:06:38;4.38;;;2.30;;
50102;SDS011;35993;52.604;10.078;2022-08-02T01:09:05;5.65;;;2.17;;
50102;SDS011;35993;52.604;10.078;2022-08-02T01:11:32;9.70;;;2.70;;
50102;SDS011;35993;52.604;10.078;2022-08-02T01:14:08;5.40;;;2.42;;
50102;SDS011;35993;52.604;10.078;2022-08-02T01:16:38;5.78;;;2.30;;
50102;SDS011;35993;52.604;10.078;2022-08-02T01:19:53;6.70;;;2.30;;
50102;SDS011;35993;52.604;10.078;2022-08-02T01:22:45;6.38;;;2.42;;
50102;SDS011;35993;52.604;10.078;2022-08-02T01:28:05;6.40;;;2.53;;
50102;SDS011;35993;52.604;10.078;2022-08-02T01:30:41;6.25;;;2.45;;
50102;SDS011;35993;52.604;10.078;2022-08-02T01:33:09;8.20;;;2.30;;
50102;SDS011;35993;52.604;10.078;2022-08-02T01:35:40;6.65;;;2.38;;
50102;SDS011;35993;52.604;10.078;2022-08-02T01:38:13;5.18;;;2.33;;
50102;SDS011;35993;52.604;10.078;2022-08-02T01:40:45;8.90;;;2.60;;
50102;SDS011;35993;52.604;10.078;2022-08-02T01:43:14;5.07;;;2.60;;
50102;SDS011;35993;52.604;10.078;2022-08-02T01:45:43;6.93;;;2.40;;
50102;SDS011;35993;52.604;10.078;2022-08-02T01:48:10;6.45;;;2.50;;
50102;SDS011;35993;52.604;10.078;2022-08-02T01:50:37;5.95;;;2.60;;
50102;SDS011;35993;52.604;10.078;2022-08-02T01:53:05;3.53;;;2.30;;
50102;SDS011;35993;52.604;10.078;2022-08-02T01:55:38;6.47;;;2.53;;
50102;SDS011;35993;52.604;10.078;2022-08-02T01:58:09;4.63;;;2.53;;
50102;SDS011;35993;52.604;10.078;2022-08-02T02:00:39;5.93;;;2.33;;
50102;SDS011;35993;52.604;10.078;2022-08-02T02:03:12;6.55;;;2.58;;
50102;SDS011;35993;52.604;10.078;2022-08-02T02:05:41;4.97;;;2.42;;
50102;SDS011;35993;52.604;10.078;2022-08-02T02:08:08;9.95;;;2.80;;
50102;SDS011;35993;52.604;10.078;2022-08-02T02:10:35;6.22;;;2.92;;
50102;SDS011;35993;52.604;10.078;2022-08-02T02:13:04;7.13;;;2.80;;
50102;SDS011;35993;52.604;10.078;2022-08-02T02:15:32;6.07;;;2.58;;
50102;SDS011;35993;52.604;10.078;2022-08-02T02:17:59;6.35;;;2.65;;
50102;SDS011;35993;52.604;10.078;2022-08-02T02:20:27;6.75;;;2.58;;
50102;SDS011;35993;52.604;10.078;2022-08-02T02:22:53;7.50;;;2.90;;
50102;SDS011;35993;52.604;10.078;2022-08-02T02:25:20;7.20;;;2.58;;
50102;SDS011;35993;52.604;10.078;2022-08-02T02:28:08;5.07;;;2.60;;
50102;SDS011;35993;52.604;10.078;2022-08-02T02:30:36;7.18;;;2.65;;
50102;SDS011;35993;52.604;10.078;2022-08-02T02:33:05;6.00;;;2.58;;
50102;SDS011;35993;52.604;10.078;2022-08-02T02:35:33;4.03;;;2.47;;
50102;SDS011;35993;52.604;10.078;2022-08-02T02:38:02;3.53;;;2.30;;
50102;SDS011;35993;52.604;10.078;2022-08-02T02:40:30;7.88;;;2.83;;
50102;SDS011;35993;52.604;10.078;2022-08-02T02:42:57;8.07;;;3.05;;
50102;SDS011;35993;52.604;10.078;2022-08-02T02:45:25;5.57;;;2.55;;
50102;SDS011;35993;52.604;10.078;2022-08-02T02:47:52;4.75;;;2.65;;
50102;SDS011;35993;52.604;10.078;2022-08-02T02:50:19;6.70;;;3.10;;
50102;SDS011;35993;52.604;10.078;2022-08-02T02:52:46;5.07;;;2.08;;
50102;SDS011;35993;52.604;10.078;2022-08-02T02:55:13;5.53;;;2.40;;
50102;SDS011;35993;52.604;10.078;2022-08-02T02:57:40;4.47;;;2.33;;
50102;SDS011;35993;52.604;10.078;2022-08-02T03:00:11;5.15;;;2.80;;
50102;SDS011;35993;52.604;10.078;2022-08-02T03:02:38;6.18;;;2.45;;
50102;SDS011;35993;52.604;10.078;2022-08-02T03:05:05;4.72;;;2.22;;
50102;SDS011;35993;52.604;10.078;2022-08-02T03:07:32;5.00;;;2.53;;
50102;SDS011;35993;52.604;10.078;2022-08-02T03:09:59;5.15;;;2.50;;
50102;SDS011;35993;52.604;10.078;2022-08-02T03:12:25;4.35;;;2.08;;
50102;SDS011;35993;52.604;10.078;2022-08-02T03:14:53;5.28;;;2.58;;
50102;SDS011;35993;52.604;10.078;2022-08-02T03:17:18;4.07;;;2.28;;
50102;SDS011;35993;52.604;10.078;2022-08-02T03:19:44;8.00;;;2.38;;
50102;SDS011;35993;52.604;10.078;2022-08-02T03:22:10;4.32;;;2.08;;
50102;SDS011;35993;52.604;10.078;2022-08-02T03:24:36;4.18;;;2.20;;
50102;SDS011;35993;52.604;10.078;2022-08-02T03:27:02;6.07;;;2.35;;
50102;SDS011;35993;52.604;10.078;2022-08-02T03:29:28;4.68;;;2.10;;
50102;SDS011;35993;52.604;10.078;2022-08-02T03:31:53;4.25;;;2.13;;
50102;SDS011;35993;52.604;10.078;2022-08-02T03:34:20;4.25;;;2.55;;
50102;SDS011;35993;52.604;10.078;2022-08-02T03:36:47;4.25;;;2.28;;
50102;SDS011;35993;52.604;10.078;2022-08-02T03:39:15;5.53;;;2.60;;
50102;SDS011;35993;52.604;10.078;2022-08-02T03:41:43;5.35;;;2.40;;
50102;SDS011;35993;52.604;10.078;2022-08-02T03:44:11;8.75;;;2.72;;
50102;SDS011;35993;52.604;10.078;2022-08-02T03:46:38;4.53;;;2.40;;
50102;SDS011;35993;52.604;10.078;2022-08-02T03:49:05;4.13;;;2.30;;
50102;SDS011;35993;52.604;10.078;2022-08-02T03:51:32;4.88;;;2.50;;
50102;SDS011;35993;52.604;10.078;2022-08-02T03:53:59;8.07;;;2.72;;
50102;SDS011;35993;52.604;10.078;2022-08-02T03:56:26;3.97;;;2.50;;
50102;SDS011;35993;52.604;10.078;2022-08-02T03:59:11;5.22;;;2.28;;
50102;SDS011;35993;52.604;10.078;2022-08-02T04:01:39;4.05;;;2.40;;
50102;SDS011;35993;52.604;10.078;2022-08-02T04:04:05;4.82;;;2.67;;
50102;SDS011;35993;52.604;10.078;2022-08-02T04:06:31;6.85;;;2.42;;
50102;SDS011;35993;52.604;10.078;2022-08-02T04:08:57;4.50;;;2.35;;
50102;SDS011;35993;52.604;10.078;2022-08-02T04:11:23;4.45;;;2.47;;
50102;SDS011;35993;52.604;10.078;2022-08-02T04:13:55;8.73;;;2.60;;
50102;SDS011;35993;52.604;10.078;2022-08-02T04:16:22;4.32;;;2.30;;
50102;SDS011;35993;52.604;10.078;2022-08-02T04:19:25;4.68;;;2.30;;
50102;SDS011;35993;52.604;10.078;2022-08-02T04:21:51;4.40;;;2.33;;
50102;SDS011;35993;52.604;10.078;2022-08-02T04:24:24;5.88;;;2.72;;
50102;SDS011;35993;52.604;10.078;2022-08-02T04:26:53;4.60;;;2.40;;
50102;SDS011;35993;52.604;10.078;2022-08-02T04:29:21;7.72;;;2.70;;
50102;SDS011;35993;52.604;10.078;2022-08-02T04:31:49;5.50;;;2.60;;
50102;SDS011;35993;52.604;10.078;2022-08-02T04:34:15;4.32;;;2.47;;
50102;SDS011;35993;52.604;10.078;2022-08-02T04:36:41;4.53;;;2.70;;
50102;SDS011;35993;52.604;10.078;2022-08-02T04:39:07;6.78;;;2.92;;
50102;SDS011;35993;52.604;10.078;2022-08-02T04:41:39;4.88;;;2.60;;
50102;SDS011;35993;52.604;10.078;2022-08-02T04:44:06;4.28;;;2.50;;
50102;SDS011;35993;52.604;10.078;2022-08-02T04:46:32;6.57;;;2.80;;
50102;SDS011;35993;52.604;10.078;2022-08-02T04:48:58;4.07;;;2.60;;
50102;SDS011;35993;52.604;10.078;2022-08-02T04:51:24;5.22;;;2.33;;
50102;SDS011;35993;52.604;10.078;2022-08-02T04:53:50;3.90;;;2.67;;
50102;SDS011;35993;52.604;10.078;2022-08-02T04:56:15;4.75;;;2.60;;
50102;SDS011;35993;52.604;10.078;2022-08-02T04:58:41;4.18;;;2.60;;
50102;SDS011;35993;52.604;10.078;2022-08-02T05:01:07;5.90;;;2.75;;
50102;SDS011;35993;52.604;10.078;2022-08-02T05:03:32;7.10;;;2.90;;
50102;SDS011;35993;52.604;10.078;2022-08-02T05:05:58;4.53;;;3.22;;
50102;SDS011;35993;52.604;10.078;2022-08-02T05:08:25;5.47;;;2.97;;
50102;SDS011;35993;52.604;10.078;2022-08-02T05:10:50;5.35;;;2.67;;
50102;SDS011;35993;52.604;10.078;2022-08-02T05:13:16;9.20;;;2.72;;
50102;SDS011;35993;52.604;10.078;2022-08-02T05:15:42;4.75;;;2.90;;
50102;SDS011;35993;52.604;10.078;2022-08-02T05:18:08;6.38;;;2.92;;
50102;SDS011;35993;52.604;10.078;2022-08-02T05:20:33;6.07;;;2.88;;
50102;SDS011;35993;52.604;10.078;2022-08-02T05:22:59;6.93;;;2.85;;
50102;SDS011;35993;52.604;10.078;2022-08-02T05:25:25;5.20;;;3.00;;
50102;SDS011;35993;52.604;10.078;2022-08-02T05:27:51;4.82;;;2.67;;
50102;SDS011;35993;52.604;10.078;2022-08-02T05:30:16;5.53;;;2.75;;
50102;SDS011;35993;52.604;10.078;2022-08-02T05:32:46;6.65;;;2.95;;
50102;SDS011;35993;52.604;10.078;2022-08-02T05:35:21;5.97;;;2.83;;
50102;SDS011;35993;52.604;10.078;2022-08-02T05:37:47;7.03;;;2.95;;
50102;SDS011;35993;52.604;10.078;2022-08-02T05:40:14;7.10;;;3.30;;
50102;SDS011;35993;52.604;10.078;2022-08-02T05:42:41;6.95;;;3.10;;
50102;SDS011;35993;52.604;10.078;2022-08-02T05:45:07;7.95;;;3.10;;
50102;SDS011;35993;52.604;10.078;2022-08-02T05:47:33;7.13;;;2.88;;
50102;SDS011;35993;52.604;10.078;2022-08-02T05:49:59;5.47;;;3.00;;
50102;SDS011;35993;52.604;10.078;2022-08-02T05:52:25;6.55;;;3.10;;
50102;SDS011;35993;52.604;10.078;2022-08-02T05:55:04;5.95;;;2.80;;
50102;SDS011;35993;52.604;10.078;2022-08-02T05:57:41;4.80;;;2.80;;
50102;SDS011;35993;52.604;10.078;2022-08-02T06:00:12;4.95;;;2.67;;
50102;SDS011;35993;52.604;10.078;2022-08-02T06:05:11;5.60;;;2.47;;
50102;SDS011;35993;52.604;10.078;2022-08-02T06:07:40;6.65;;;2.80;;
50102;SDS011;35993;52.604;10.078;2022-08-02T06:10:07;9.35;;;2.80;;
50102;SDS011;35993;52.604;10.078;2022-08-02T06:13:08;9.30;;;3.13;;
50102;SDS011;35993;52.604;10.078;2022-08-02T06:15:28;6.55;;;2.33;;
50102;SDS011;35993;52.604;10.078;2022-08-02T06:17:54;7.30;;;2.53;;
50102;SDS011;35993;52.604;10.078;2022-08-02T06:20:23;8.82;;;2.50;;
50102;SDS011;35993;52.604;10.078;2022-08-02T06:22:51;3.90;;;1.77;;
50102;SDS011;35993;52.604;10.078;2022-08-02T06:25:19;5.03;;;2.00;;
50102;SDS011;35993;52.604;10.078;2022-08-02T06:27:46;6.63;;;2.05;;
50102;SDS011;35993;52.604;10.078;2022-08-02T06:30:13;5.88;;;2.08;;
50102;SDS011;35993;52.604;10.078;2022-08-02T06:32:39;8.00;;;2.25;;
50102;SDS011;35993;52.604;10.078;2022-08-02T06:35:06;7.85;;;2.40;;
50102;SDS011;35993;52.604;10.078;2022-08-02T06:37:51;4.70;;;2.10;;
50102;SDS011;35993;52.604;10.078;2022-08-02T06:46:14;6.65;;;2.40;;
50102;SDS011;35993;52.604;10.078;2022-08-02T06:48:39;6.68;;;1.88;;
50102;SDS011;35993;52.604;10.078;2022-08-02T06:51:05;3.35;;;1.70;;
50102;SDS011;35993;52.604;10.078;2022-08-02T06:53:31;5.13;;;2.00;;
50102;SDS011;35993;52.604;10.078;2022-08-02T06:55:57;6.20;;;1.90;;
50102;SDS011;35993;52.604;10.078;2022-08-02T06:58:23;5.47;;;2.42;;
50102;SDS011;35993;52.604;10.078;2022-08-02T07:00:49;5.88;;;1.95;;
50102;SDS011;35993;52.604;10.078;2022-08-02T07:03:16;6.60;;;1.92;;
50102;SDS011;35993;52.604;10.078;2022-08-02T07:05:42;4.90;;;2.17;;
50102;SDS011;35993;52.604;10.078;2022-08-02T07:08:15;4.90;;;1.98;;
50102;SDS011;35993;52.604;10.078;2022-08-02T07:10:41;4.95;;;2.13;;
50102;SDS011;35993;52.604;10.078;2022-08-02T07:13:06;4.68;;;1.92;;
50102;SDS011;35993;52.604;10.078;2022-08-02T07:15:32;5.45;;;2.13;;
50102;SDS011;35993;52.604;10.078;2022-08-02T07:17:58;6.00;;;1.90;;
50102;SDS011;35993;52.604;10.078;2022-08-02T07:20:23;7.15;;;1.85;;
50102;SDS011;35993;52.604;10.078;2022-08-02T07:22:49;6.13;;;2.00;;
50102;SDS011;35993;52.604;10.078;2022-08-02T07:25:14;7.35;;;2.00;;
50102;SDS011;35993;52.604;10.078;2022-08-02T07:27:40;8.82;;;2.20;;
50102;SDS011;35993;52.604;10.078;2022-08-02T07:30:06;6.60;;;2.15;;
50102;SDS011;35993;52.604;10.078;2022-08-02T07:32:32;6.82;;;1.92;;
50102;SDS011;35993;52.604;10.078;2022-08-02T07:34:58;7.32;;;1.95;;
50102;SDS011;35993;52.604;10.078;2022-08-02T07:37:29;6.60;;;2.00;;
50102;SDS011;35993;52.604;10.078;2022-08-02T07:39:56;9.35;;;2.58;;
50102;SDS011;35993;52.604;10.078;2022-08-02T07:42:22;9.45;;;1.80;;
50102;SDS011;35993;52.604;10.078;2022-08-02T07:44:48;5.68;;;1.70;;
50102;SDS011;35993;52.604;10.078;2022-08-02T07:47:14;5.35;;;2.17;;
50102;SDS011;35993;52.604;10.078;2022-08-02T07:49:40;4.60;;;2.15;;
50102;SDS011;35993;52.604;10.078;2022-08-02T07:52:06;9.88;;;2.35;;
50102;SDS011;35993;52.604;10.078;2022-08-02T07:54:31;4.68;;;1.90;;
50102;SDS011;35993;52.604;10.078;2022-08-02T07:56:57;8.15;;;2.28;;
50102;SDS011;35993;52.604;10.078;2022-08-02T07:59:23;6.63;;;1.90;;
50102;SDS011;35993;52.604;10.078;2022-08-02T08:01:48;7.00;;;2.00;;
50102;SDS011;35993;52.604;10.078;2022-08-02T08:04:14;8.23;;;2.50;;
50102;SDS011;35993;52.604;10.078;2022-08-02T08:06:40;9.00;;;2.70;;
50102;SDS011;35993;52.604;10.078;2022-08-02T08:09:06;7.30;;;2.08;;
50102;SDS011;35993;52.604;10.078;2022-08-02T08:11:32;7.32;;;2.15;;
50102;SDS011;35993;52.604;10.078;2022-08-02T08:13:57;8.05;;;2.50;;
50102;SDS011;35993;52.604;10.078;2022-08-02T08:16:23;5.70;;;2.17;;
50102;SDS011;35993;52.604;10.078;2022-08-02T08:18:50;7.50;;;2.17;;
50102;SDS011;35993;52.604;10.078;2022-08-02T08:21:16;5.70;;;2.22;;
50102;SDS011;35993;52.604;10.078;2022-08-02T08:23:42;5.80;;;2.38;;
50102;SDS011;35993;52.604;10.078;2022-08-02T08:26:07;7.93;;;2.20;;
50102;SDS011;35993;52.604;10.078;2022-08-02T08:28:33;6.72;;;2.20;;
50102;SDS011;35993;52.604;10.078;2022-08-02T08:31:00;5.43;;;2.08;;
50102;SDS011;35993;52.604;10.078;2022-08-02T08:33:26;7.97;;;2.40;;
50102;SDS011;35993;52.604;10.078;2022-08-02T08:35:52;9.52;;;2.40;;
50102;SDS011;35993;52.604;10.078;2022-08-02T08:38:17;6.32;;;2.53;;
50102;SDS011;35993;52.604;10.078;2022-08-02T08:40:43;7.88;;;2.50;;
50102;SDS011;35993;52.604;10.078;2022-08-02T08:43:11;8.55;;;2.38;;
50102;SDS011;35993;52.604;10.078;2022-08-02T08:45:38;7.93;;;2.20;;
50102;SDS011;35993;52.604;10.078;2022-08-02T08:48:07;3.95;;;1.98;;
50102;SDS011;35993;52.604;10.078;2022-08-02T08:50:49;6.63;;;2.15;;
50102;SDS011;35993;52.604;10.078;2022-08-02T08:53:20;4.93;;;2.20;;
50102;SDS011;35993;52.604;10.078;2022-08-02T08:55:50;5.80;;;2.13;;
50102;SDS011;35993;52.604;10.078;2022-08-02T08:58:17;6.30;;;2.35;;
50102;SDS011;35993;52.604;10.078;2022-08-02T09:00:43;8.23;;;2.63;;
50102;SDS011;35993;52.604;10.078;2022-08-02T09:03:09;4.97;;;2.03;;
50102;SDS011;35993;52.604;10.078;2022-08-02T09:05:38;6.97;;;2.10;;
50102;SDS011;35993;52.604;10.078;2022-08-02T09:08:04;6.97;;;2.42;;
50102;SDS011;35993;52.604;10.078;2022-08-02T09:15:42;5.60;;;2.45;;
50102;SDS011;35993;52.604;10.078;2022-08-02T09:18:16;7.85;;;2.50;;
50102;SDS011;35993;52.604;10.078;2022-08-02T09:23:17;8.00;;;2.67;;
50102;SDS011;35993;52.604;10.078;2022-08-02T09:25:53;4.70;;;2.20;;
50102;SDS011;35993;52.604;10.078;2022-08-02T09:28:21;13.60;;;2.55;;
50102;SDS011;35993;52.604;10.078;2022-08-02T09:30:50;6.50;;;2.45;;
50102;SDS011;35993;52.604;10.078;2022-08-02T09:33:25;6.07;;;2.28;;
50102;SDS011;35993;52.604;10.078;2022-08-02T09:38:28;9.02;;;2.58;;
50102;SDS011;35993;52.604;10.078;2022-08-02T09:40:54;6.85;;;2.30;;
50102;SDS011;35993;52.604;10.078;2022-08-02T09:43:20;4.85;;;2.47;;
50102;SDS011;35993;52.604;10.078;2022-08-02T09:45:58;4.85;;;2.20;;
50102;SDS011;35993;52.604;10.078;2022-08-02T09:48:23;6.03;;;2.13;;
50102;SDS011;35993;52.604;10.078;2022-08-02T09:50:49;5.78;;;2.30;;
50102;SDS011;35993;52.604;10.078;2022-08-02T09:55:53;5.88;;;2.35;;
50102;SDS011;35993;52.604;10.078;2022-08-02T09:58:20;4.43;;;2.10;;
50102;SDS011;35993;52.604;10.078;2022-08-02T10:00:53;6.50;;;2.78;;
50102;SDS011;35993;52.604;10.078;2022-08-02T10:03:19;4.43;;;2.05;;
50102;SDS011;35993;52.604;10.078;2022-08-02T10:05:53;5.00;;;2.13;;
50102;SDS011;35993;52.604;10.078;2022-08-02T10:08:20;7.43;;;1.80;;
50102;SDS011;35993;52.604;10.078;2022-08-02T10:10:46;7.55;;;2.03;;
50102;SDS011;35993;52.604;10.078;2022-08-02T10:13:12;3.33;;;1.98;;
50102;SDS011;35993;52.604;10.078;2022-08-02T10:15:39;4.13;;;1.90;;
50102;SDS011;35993;52.604;10.078;2022-08-02T10:18:05;3.83;;;1.77;;
50102;SDS011;35993;52.604;10.078;2022-08-02T10:20:37;3.85;;;2.03;;
50102;SDS011;35993;52.604;10.078;2022-08-02T10:23:08;4.53;;;2.00;;
50102;SDS011;35993;52.604;10.078;2022-08-02T10:25:38;5.93;;;1.92;;
50102;SDS011;35993;52.604;10.078;2022-08-02T10:28:07;5.45;;;2.03;;
50102;SDS011;35993;52.604;10.078;2022-08-02T10:30:38;6.22;;;1.90;;
50102;SDS011;35993;52.604;10.078;2022-08-02T10:33:07;6.40;;;1.95;;
50102;SDS011;35993;52.604;10.078;2022-08-02T10:35:37;4.15;;;1.92;;
50102;SDS011;35993;52.604;10.078;2022-08-02T10:38:08;7.25;;;1.88;;
50102;SDS011;35993;52.604;10.078;2022-08-02T10:40:49;7.13;;;2.00;;
50102;SDS011;35993;52.604;10.078;2022-08-02T10:46:22;4.50;;;2.13;;
50102;SDS011;35993;52.604;10.078;2022-08-02T10:51:56;4.77;;;2.10;;
50102;SDS011;35993;52.604;10.078;2022-08-02T10:54:24;5.65;;;1.80;;
50102;SDS011;35993;52.604;10.078;2022-08-02T10:56:52;5.40;;;1.67;;
50102;SDS011;35993;52.604;10.078;2022-08-02T10:59:35;5.82;;;2.17;;
50102;SDS011;35993;52.604;10.078;2022-08-02T11:04:30;3.78;;;1.77;;
50102;SDS011;35993;52.604;10.078;2022-08-02T11:07:17;5.45;;;2.03;;
50102;SDS011;35993;52.604;10.078;2022-08-02T11:09:56;5.03;;;2.28;;
50102;SDS011;35993;52.604;10.078;2022-08-02T11:12:23;3.55;;;1.65;;
50102;SDS011;35993;52.604;10.078;2022-08-02T11:15:03;3.58;;;1.90;;
50102;SDS011;35993;52.604;10.078;2022-08-02T11:17:50;5.43;;;1.90;;
50102;SDS011;35993;52.604;10.078;2022-08-02T11:20:17;5.85;;;1.83;;
50102;SDS011;35993;52.604;10.078;2022-08-02T11:22:44;3.90;;;1.80;;
50102;SDS011;35993;52.604;10.078;2022-08-02T11:27:56;3.95;;;1.83;;
50102;SDS011;35993;52.604;10.078;2022-08-02T11:30:24;2.35;;;1.58;;
50102;SDS011;35993;52.604;10.078;2022-08-02T11:32:58;4.15;;;1.75;;
50102;SDS011;35993;52.604;10.078;2022-08-02T11:35:34;3.35;;;1.80;;
50102;SDS011;35993;52.604;10.078;2022-08-02T11:38:15;4.30;;;1.90;;
50102;SDS011;35993;52.604;10.078;2022-08-02T11:40:42;6.28;;;2.08;;
50102;SDS011;35993;52.604;10.078;2022-08-02T11:43:19;2.72;;;1.58;;
50102;SDS011;35993;52.604;10.078;2022-08-02T11:45:49;4.25;;;1.65;;
50102;SDS011;35993;52.604;10.078;2022-08-02T11:51:15;8.35;;;2.10;;
50102;SDS011;35993;52.604;10.078;2022-08-02T11:53:48;4.07;;;1.83;;
50102;SDS011;35993;52.604;10.078;2022-08-02T11:56:28;4.60;;;1.52;;
50102;SDS011;35993;52.604;10.078;2022-08-02T11:59:00;3.97;;;1.50;;
50102;SDS011;35993;52.604;10.078;2022-08-02T12:01:30;2.50;;;1.60;;
50102;SDS011;35993;52.604;10.078;2022-08-02T12:03:57;5.65;;;1.77;;
50102;SDS011;35993;52.604;10.078;2022-08-02T12:06:25;4.53;;;1.80;;
50102;SDS011;35993;52.604;10.078;2022-08-02T12:09:04;4.07;;;1.75;;
50102;SDS011;35993;52.604;10.078;2022-08-02T12:11:32;4.63;;;1.60;;
50102;SDS011;35993;52.604;10.078;2022-08-02T12:13:58;1.98;;;1.50;;
50102;SDS011;35993;52.604;10.078;2022-08-02T12:16:24;3.13;;;1.30;;
50102;SDS011;35993;52.604;10.078;2022-08-02T12:19:16;4.60;;;1.88;;
50102;SDS011;35993;52.604;10.078;2022-08-02T12:21:43;3.15;;;1.65;;
50102;SDS011;35993;52.604;10.078;2022-08-02T12:24:09;3.58;;;1.67;;
50102;SDS011;35993;52.604;10.078;2022-08-02T12:26:45;3.10;;;1.60;;
50102;SDS011;35993;52.604;10.078;2022-08-02T12:29:12;2.83;;;1.60;;
50102;SDS011;35993;52.604;10.078;2022-08-02T12:31:39;2.10;;;1.50;;
50102;SDS011;35993;52.604;10.078;2022-08-02T12:34:13;3.08;;;1.48;;
50102;SDS011;35993;52.604;10.078;2022-08-02T12:36:41;2.80;;;1.65;;
50102;SDS011;35993;52.604;10.078;2022-08-02T12:39:11;3.08;;;1.65;;
50102;SDS011;35993;52.604;10.078;2022-08-02T12:41:38;2.28;;;1.60;;
50102;SDS011;35993;52.604;10.078;2022-08-02T12:44:04;4.05;;;1.63;;
50102;SDS011;35993;52.604;10.078;2022-08-02T12:46:38;2.55;;;1.50;;
50102;SDS011;35993;52.604;10.078;2022-08-02T12:49:16;2.90;;;1.52;;
50102;SDS011;35993;52.604;10.078;2022-08-02T12:51:44;2.38;;;1.45;;
50102;SDS011;35993;52.604;10.078;2022-08-02T12:54:15;2.35;;;1.23;;
50102;SDS011;35993;52.604;10.078;2022-08-02T12:56:43;4.28;;;1.52;;
50102;SDS011;35993;52.604;10.078;2022-08-02T12:59:09;3.65;;;1.30;;
50102;SDS011;35993;52.604;10.078;2022-08-02T13:01:35;6.13;;;1.58;;
50102;SDS011;35993;52.604;10.078;2022-08-02T13:04:01;2.45;;;1.40;;
50102;SDS011;35993;52.604;10.078;2022-08-02T13:06:27;2.25;;;1.40;;
50102;SDS011;35993;52.604;10.078;2022-08-02T13:08:52;4.20;;;1.60;;
50102;SDS011;35993;52.604;10.078;2022-08-02T13:11:23;3.28;;;1.38;;
50102;SDS011;35993;52.604;10.078;2022-08-02T13:13:49;5.47;;;1.48;;
50102;SDS011;35993;52.604;10.078;2022-08-02T13:16:15;2.80;;;1.42;;
50102;SDS011;35993;52.604;10.078;2022-08-02T13:18:41;2.65;;;1.45;;
50102;SDS011;35993;52.604;10.078;2022-08-02T13:21:07;1.90;;;1.30;;
50102;SDS011;35993;52.604;10.078;2022-08-02T13:23:35;2.28;;;1.30;;
50102;SDS011;35993;52.604;10.078;2022-08-02T13:26:01;3.15;;;1.50;;
50102;SDS011;35993;52.604;10.078;2022-08-02T13:28:27;3.17;;;1.33;;
50102;SDS011;35993;52.604;10.078;2022-08-02T13:30:53;3.78;;;1.63;;
50102;SDS011;35993;52.604;10.078;2022-08-02T13:33:18;4.45;;;1.70;;
50102;SDS011;35993;52.604;10.078;2022-08-02T13:35:46;3.85;;;1.33;;
50102;SDS011;35993;52.604;10.078;2022-08-02T13:38:12;3.47;;;1.45;;
50102;SDS011;35993;52.604;10.078;2022-08-02T13:40:38;2.08;;;1.40;;
50102;SDS011;35993;52.604;10.078;2022-08-02T13:43:23;2.10;;;1.30;;
50102;SDS011;35993;52.604;10.078;2022-08-02T13:45:49;3.63;;;1.42;;
50102;SDS011;35993;52.604;10.078;2022-08-02T13:48:15;2.60;;;1.40;;
50102;SDS011;35993;52.604;10.078;2022-08-02T13:50:40;2.60;;;1.60;;
50102;SDS011;35993;52.604;10.078;2022-08-02T13:53:06;6.28;;;1.58;;
50102;SDS011;35993;52.604;10.078;2022-08-02T13:55:32;3.72;;;1.60;;
50102;SDS011;35993;52.604;10.078;2022-08-02T13:57:58;2.10;;;1.40;;
50102;SDS011;35993;52.604;10.078;2022-08-02T14:00:23;2.95;;;1.50;;
50102;SDS011;35993;52.604;10.078;2022-08-02T14:02:49;2.85;;;1.70;;
50102;SDS011;35993;52.604;10.078;2022-08-02T14:05:15;2.20;;;1.60;;
50102;SDS011;35993;52.604;10.078;2022-08-02T14:07:40;4.28;;;2.03;;
50102;SDS011;35993;52.604;10.078;2022-08-02T14:10:06;2.67;;;1.67;;
50102;SDS011;35993;52.604;10.078;2022-08-02T14:12:32;3.53;;;1.80;;
50102;SDS011;35993;52.604;10.078;2022-08-02T14:14:58;4.10;;;1.70;;
50102;SDS011;35993;52.604;10.078;2022-08-02T14:17:24;3.25;;;1.80;;
50102;SDS011;35993;52.604;10.078;2022-08-02T14:19:49;3.35;;;1.70;;
50102;SDS011;35993;52.604;10.078;2022-08-02T14:22:15;2.45;;;1.60;;
50102;SDS011;35993;52.604;10.078;2022-08-02T14:24:41;2.75;;;1.73;;
50102;SDS011;35993;52.604;10.078;2022-08-02T14:27:07;2.83;;;1.60;;
50102;SDS011;35993;52.604;10.078;2022-08-02T14:29:34;3.05;;;1.60;;
50102;SDS011;35993;52.604;10.078;2022-08-02T14:31:59;3.25;;;1.58;;
50102;SDS011;35993;52.604;10.078;2022-08-02T14:34:26;3.22;;;1.80;;
50102;SDS011;35993;52.604;10.078;2022-08-02T14:36:51;2.90;;;1.95;;
50102;SDS011;35993;52.604;10.078;2022-08-02T14:39:17;2.58;;;1.70;;
50102;SDS011;35993;52.604;10.078;2022-08-02T14:41:43;2.30;;;1.60;;
50102;SDS011;35993;52.604;10.078;2022-08-02T14:44:08;3.08;;;1.80;;
50102;SDS011;35993;52.604;10.078;2022-08-02T14:46:35;5.65;;;1.83;;
50102;SDS011;35993;52.604;10.078;2022-08-02T14:49:02;4.45;;;1.70;;
50102;SDS011;35993;52.604;10.078;2022-08-02T14:51:32;3.65;;;1.60;;
50102;SDS011;35993;52.604;10.078;2022-08-02T14:53:59;3.20;;;1.98;;
50102;SDS011;35993;52.604;10.078;2022-08-02T14:56:25;3.15;;;1.73;;
50102;SDS011;35993;52.604;10.078;2022-08-02T14:58:52;2.80;;;1.92;;
50102;SDS011;35993;52.604;10.078;2022-08-02T15:01:18;2.83;;;1.95;;
50102;SDS011;35993;52.604;10.078;2022-08-02T15:03:44;3.97;;;2.05;;
50102;SDS011;35993;52.604;10.078;2022-08-02T15:06:09;3.60;;;1.73;;
50102;SDS011;35993;52.604;10.078;2022-08-02T15:08:35;2.70;;;1.88;;
50102;SDS011;35993;52.604;10.078;2022-08-02T15:11:00;3.80;;;1.90;;
50102;SDS011;35993;52.604;10.078;2022-08-02T15:13:26;3.22;;;1.88;;
50102;SDS011;35993;52.604;10.078;2022-08-02T15:15:52;3.50;;;2.00;;
50102;SDS011;35993;52.604;10.078;2022-08-02T15:18:17;4.82;;;2.10;;